Austin Bergstrom International Airport
KAUS : now visible

Airfield :











YOU CAN JOIN US ON...

 
LOGIN :

Register | Disclaimer

   EN    FR    IT 

 









Legend :    VFR   Marginal VFR   IFR   Intensive IFR   Very Intensive IFR
Visi :
Ceiling :
>= 8 km
>= 3000ft
5 to 8 km
1000 to 3000 ft
1500m to 5 km
500 to 1000 ft
800 to 1500m
200 to 500 ft
< 800m
< 200 ft
Symbols :   Thunderstorms  Fog  Heavy snow  Heavy precipitations  Wind > 20 kt






- Airport Elevation : 542 ft
- IATA code : AUS


KAUS - Austin Bergstrom International

CURRENT METAR :
  • 050053Z 11004KT 10SM FEW045 SCT250 SCT300 28/22 A2998 RMK AO2 SLP141 T02830217

EXPIRED METARs :
  • 042353Z 12008KT 10SM SCT075 SCT250 SCT300 30/22 A2997 RMK AO2 SLP139 T03000222 10311 20300 55000
  • 042253Z 09010KT 10SM SCT075 SCT250 SCT300 31/21 A2996 RMK AO2 SLP134 T03060211

TAF KAUS
Valid from the 05 at 00:00 until the 06 at 06:00 UTC


042322Z 0500/0606 10007KT P6SM SCT040 BKN100
FM050900 VRB03KT P6SM SCT020 OVC100
FM051800 14007KT P6SM VCTS SCT040CB
KZHU FIR / North America



MET'MAP, your aeronautical weather chart ! - Copyright ORBIFLY December 2007 - Disclaimer

ORBIFLY MET'MAP TEAM :

Programming & Development : Alexandra Zaïnal
Concept & original design : Baudouin d'Aumeries
Assistance for programming : Marc-Olivier Méhu
Technical & hardware support : Manuel Goepfert

Contact : metmap@orbifly.com




SOURCES & CREDITS :

   NOAA       Earth
Advisory